createdAt,value
2022-12-23T00:00:42.164Z,9.681129
2022-12-23T00:01:42.194Z,9.681878
2022-12-23T00:02:42.368Z,9.682001
2022-12-23T00:03:42.253Z,9.681260
2022-12-23T00:04:42.122Z,9.681373
2022-12-23T00:05:42.112Z,9.681423
2022-12-23T00:06:42.118Z,9.681265
2022-12-23T00:07:42.081Z,9.681133
2022-12-23T00:08:42.076Z,9.681281
2022-12-23T00:09:42.082Z,9.681213
2022-12-23T00:10:42.088Z,9.681123
2022-12-23T00:11:42.111Z,9.681357
2022-12-23T00:12:42.070Z,9.681102
2022-12-23T00:13:42.073Z,9.681014
2022-12-23T00:14:42.032Z,9.681499
2022-12-23T00:15:42.053Z,9.681080
2022-12-23T00:16:42.038Z,9.680977
2022-12-23T00:17:42.037Z,9.681029
2022-12-23T00:18:42.006Z,9.681026
2022-12-23T00:19:42.024Z,9.681294
2022-12-23T00:20:42.007Z,9.681116
2022-12-23T00:21:42.000Z,9.681335
2022-12-23T00:22:41.982Z,9.680840
2022-12-23T00:23:42.035Z,9.681149
2022-12-23T00:24:41.962Z,9.681290
2022-12-23T00:25:42.179Z,9.681580
2022-12-23T00:26:41.948Z,9.681387
2022-12-23T00:27:41.947Z,9.681012
2022-12-23T00:28:41.975Z,9.681166
2022-12-23T00:29:41.967Z,9.681044
2022-12-23T00:30:41.937Z,9.680750
2022-12-23T00:31:41.985Z,9.680962
2022-12-23T00:32:41.943Z,9.681044
2022-12-23T00:33:41.917Z,9.681276
2022-12-23T00:34:41.923Z,9.681419
2022-12-23T00:35:41.930Z,9.681121
2022-12-23T00:36:41.959Z,9.681216
2022-12-23T00:37:41.884Z,9.681388
2022-12-23T00:38:41.894Z,9.682303
2022-12-23T00:39:41.882Z,9.681763
2022-12-23T00:40:41.921Z,9.682031
2022-12-23T00:41:41.863Z,9.681251
2022-12-23T00:42:41.881Z,9.681109
2022-12-23T00:43:41.881Z,9.681353
2022-12-23T00:44:41.838Z,9.681157
2022-12-23T00:45:41.940Z,9.681180
2022-12-23T00:46:41.828Z,9.681052
2022-12-23T00:47:41.838Z,9.681357
2022-12-23T00:48:41.804Z,9.681379
2022-12-23T00:49:41.840Z,9.681052
2022-12-23T00:50:41.800Z,9.681640
2022-12-23T00:51:41.815Z,9.681236
2022-12-23T00:52:41.799Z,9.681116
2022-12-23T00:53:41.790Z,9.681319
2022-12-23T00:54:41.776Z,9.681412
2022-12-23T00:55:41.787Z,9.681338
2022-12-23T00:56:41.763Z,9.681314
2022-12-23T00:57:41.779Z,9.681221
2022-12-23T00:58:41.748Z,9.681227
2022-12-23T00:59:41.740Z,9.681046
2022-12-23T01:00:41.938Z,9.681284
2022-12-23T01:01:41.865Z,9.680907
2022-12-23T01:02:41.795Z,9.681010
2022-12-23T01:03:41.793Z,9.681260
2022-12-23T01:04:41.714Z,9.681260
2022-12-23T01:05:41.720Z,9.681181
2022-12-23T01:06:41.695Z,9.681202
2022-12-23T01:07:41.701Z,9.681147
2022-12-23T01:08:41.683Z,9.680902
2022-12-23T01:09:41.719Z,9.680632
2022-12-23T01:10:41.695Z,9.680993
2022-12-23T01:11:41.666Z,9.681306
2022-12-23T01:12:41.673Z,9.681279
2022-12-23T01:13:41.664Z,9.681397
2022-12-23T01:14:41.642Z,9.681233
2022-12-23T01:15:41.673Z,9.681089
2022-12-23T01:16:41.680Z,9.680557
2022-12-23T01:17:41.638Z,9.681131
2022-12-23T01:18:41.624Z,9.681591
2022-12-23T01:19:41.631Z,9.681853
2022-12-23T01:20:41.614Z,9.681411
2022-12-23T01:21:41.633Z,9.681067
2022-12-23T01:22:41.609Z,9.681028
2022-12-23T01:23:41.612Z,9.681284
2022-12-23T01:24:41.594Z,9.681889
2022-12-23T01:25:41.569Z,9.682768
2022-12-23T01:26:41.591Z,9.682592
2022-12-23T01:27:41.580Z,9.681309
2022-12-23T01:28:41.566Z,9.681605
2022-12-23T01:29:41.562Z,9.681196
2022-12-23T01:30:41.545Z,9.682005
2022-12-23T01:31:41.672Z,9.681450
2022-12-23T01:32:41.540Z,9.680914
2022-12-23T01:33:41.533Z,9.681138
2022-12-23T01:34:41.551Z,9.680961
2022-12-23T01:35:41.531Z,9.681289
2022-12-23T01:36:41.536Z,9.681737
2022-12-23T01:37:41.524Z,9.681504
2022-12-23T01:38:41.493Z,9.681276
2022-12-23T01:39:41.525Z,9.681096
2022-12-23T01:40:41.484Z,9.681076
2022-12-23T01:41:41.497Z,9.681110
2022-12-23T01:42:41.494Z,9.680934
2022-12-23T01:43:41.468Z,9.681336
2022-12-23T01:44:41.466Z,9.681399
2022-12-23T01:45:41.487Z,9.681390
2022-12-23T01:46:41.455Z,9.681315
2022-12-23T01:47:41.476Z,9.680853
2022-12-23T01:48:41.434Z,9.680884
2022-12-23T01:49:41.441Z,9.681058
2022-12-23T01:50:41.425Z,9.681156
2022-12-23T01:51:41.442Z,9.681137
2022-12-23T01:52:41.417Z,9.681057
2022-12-23T01:53:41.439Z,9.680867
2022-12-23T01:54:41.432Z,9.681347
2022-12-23T01:55:41.413Z,9.681113
2022-12-23T01:56:41.395Z,9.681171
2022-12-23T01:57:41.406Z,9.680661
2022-12-23T01:58:41.406Z,9.681216
2022-12-23T01:59:41.379Z,9.681271
2022-12-23T02:00:41.364Z,9.681735
2022-12-23T02:01:41.422Z,9.681614
2022-12-23T02:02:41.460Z,9.681549
2022-12-23T02:03:41.403Z,9.681199
2022-12-23T02:04:41.387Z,9.680938
2022-12-23T02:05:41.343Z,9.681309
2022-12-23T02:06:41.320Z,9.680629
2022-12-23T02:07:41.324Z,9.681466
2022-12-23T02:08:41.312Z,9.681391
2022-12-23T02:09:41.329Z,9.681936
2022-12-23T02:10:41.305Z,9.681249
2022-12-23T02:11:41.299Z,9.681249
2022-12-23T02:12:41.284Z,9.680751
2022-12-23T02:13:41.283Z,9.681185
2022-12-23T02:14:41.301Z,9.680797
2022-12-23T02:15:41.270Z,9.681179
2022-12-23T02:16:41.333Z,9.680923
2022-12-23T02:17:41.262Z,9.681390
2022-12-23T02:18:41.268Z,9.681069
2022-12-23T02:19:41.248Z,9.681133
2022-12-23T02:20:41.288Z,9.681465
2022-12-23T02:21:41.234Z,9.681656
2022-12-23T02:22:41.239Z,9.680793
2022-12-23T02:23:41.233Z,9.680792
2022-12-23T02:24:41.224Z,9.681114
2022-12-23T02:25:41.207Z,9.681066
2022-12-23T02:26:41.197Z,9.680884
2022-12-23T02:27:41.211Z,9.681500
2022-12-23T02:28:41.193Z,9.680418
2022-12-23T02:29:41.192Z,9.680670
2022-12-23T02:30:41.232Z,9.681381
2022-12-23T02:31:41.176Z,9.680385
2022-12-23T02:32:41.182Z,9.680385
2022-12-23T02:33:41.191Z,9.680385
2022-12-23T02:34:41.166Z,9.680918
2022-12-23T02:35:41.143Z,9.680971
2022-12-23T02:36:41.139Z,9.680946
2022-12-23T02:37:41.147Z,9.681022
2022-12-23T02:38:41.152Z,9.680820
2022-12-23T02:39:41.111Z,9.681493
2022-12-23T02:40:41.142Z,9.680948
2022-12-23T02:41:41.104Z,9.680795
2022-12-23T02:42:41.138Z,9.680860
2022-12-23T02:43:41.096Z,9.680934
2022-12-23T02:44:41.088Z,9.681147
2022-12-23T02:45:41.066Z,9.681084
2022-12-23T02:46:41.157Z,9.681039
2022-12-23T02:47:41.072Z,9.680910
2022-12-23T02:48:41.075Z,9.681002
2022-12-23T02:49:41.073Z,9.681235
2022-12-23T02:50:41.039Z,9.681189
2022-12-23T02:51:41.057Z,9.680939
2022-12-23T02:52:41.037Z,9.681063
2022-12-23T02:53:41.024Z,9.681132
2022-12-23T02:54:41.040Z,9.681046
2022-12-23T02:55:41.014Z,9.681175
2022-12-23T02:56:41.019Z,9.681107
2022-12-23T02:57:41.023Z,9.681053
2022-12-23T02:58:41.012Z,9.680973
2022-12-23T02:59:41.066Z,9.680869
2022-12-23T03:00:40.982Z,9.681093
2022-12-23T03:01:41.097Z,9.681079
2022-12-23T03:02:41.231Z,9.681242
2022-12-23T03:03:41.077Z,9.681256
2022-12-23T03:04:40.962Z,9.681124
2022-12-23T03:05:40.967Z,9.681017
2022-12-23T03:06:40.960Z,9.680998
2022-12-23T03:07:40.936Z,9.681377
2022-12-23T03:08:40.963Z,9.681054
2022-12-23T03:09:40.936Z,9.680897
2022-12-23T03:10:40.940Z,9.681465
2022-12-23T03:11:40.919Z,9.681140
2022-12-23T03:12:40.903Z,9.680786
2022-12-23T03:13:40.946Z,9.680966
2022-12-23T03:14:40.894Z,9.681065
2022-12-23T03:15:40.958Z,9.680899
2022-12-23T03:16:40.905Z,9.681211
2022-12-23T03:17:40.895Z,9.681357
2022-12-23T03:18:40.892Z,9.681142
2022-12-23T03:19:40.885Z,9.681196
2022-12-23T03:20:40.863Z,9.681255
2022-12-23T03:21:40.864Z,9.681040
2022-12-23T03:22:40.843Z,9.681301
2022-12-23T03:23:40.843Z,9.681240
2022-12-23T03:24:40.886Z,9.681415
2022-12-23T03:25:40.844Z,9.681432
2022-12-23T03:26:40.833Z,9.681404
2022-12-23T03:27:40.829Z,9.681257
2022-12-23T03:28:40.842Z,9.680988
2022-12-23T03:29:40.803Z,9.681016
2022-12-23T03:30:40.826Z,9.681016
2022-12-23T03:31:40.839Z,9.681016
2022-12-23T03:32:40.813Z,9.681185
2022-12-23T03:33:40.802Z,9.680758
2022-12-23T03:34:40.780Z,9.681080
2022-12-23T03:35:40.775Z,9.680950
2022-12-23T03:36:40.769Z,9.680904
2022-12-23T03:37:40.758Z,9.681039
2022-12-23T03:38:40.793Z,9.681432
2022-12-23T03:39:40.760Z,9.681362
2022-12-23T03:40:40.757Z,9.681068
2022-12-23T03:41:40.743Z,9.680884
2022-12-23T03:42:40.744Z,9.680659
2022-12-23T03:43:46.636Z,9.680992
2022-12-23T03:44:48.002Z,9.681068
2022-12-23T03:45:41.892Z,9.680592
2022-12-23T03:46:40.808Z,9.680775
2022-12-23T03:47:40.738Z,9.681147
2022-12-23T03:48:40.691Z,9.681190
2022-12-23T03:49:40.683Z,9.680894
2022-12-23T03:50:40.687Z,9.681171
2022-12-23T03:51:40.672Z,9.680777
2022-12-23T03:52:40.671Z,9.680620
2022-12-23T03:53:40.680Z,9.680882
2022-12-23T03:54:40.655Z,9.681355
2022-12-23T03:55:40.670Z,9.681733
2022-12-23T03:56:40.646Z,9.682016
2022-12-23T03:57:40.643Z,9.681581
2022-12-23T03:58:40.651Z,9.681861
2022-12-23T03:59:40.663Z,9.681877
2022-12-23T04:00:40.624Z,9.681310
2022-12-23T04:01:40.726Z,9.681310
2022-12-23T04:02:40.759Z,9.681268
2022-12-23T04:03:40.604Z,9.681218
2022-12-23T04:04:40.633Z,9.680861
2022-12-23T04:05:40.591Z,9.681396
2022-12-23T04:06:40.582Z,9.681027
2022-12-23T04:07:40.611Z,9.681103
2022-12-23T04:08:40.577Z,9.681724
2022-12-23T04:09:40.570Z,9.681556
2022-12-23T04:10:40.578Z,9.681491
2022-12-23T04:11:40.558Z,9.681992
2022-12-23T04:12:40.557Z,9.681697
2022-12-23T04:13:40.576Z,9.681582
2022-12-23T04:14:40.543Z,9.681665
2022-12-23T04:15:40.574Z,9.681810
2022-12-23T04:16:40.641Z,9.681730
2022-12-23T04:17:40.545Z,9.681644
2022-12-23T04:18:40.512Z,9.681483
2022-12-23T04:19:40.525Z,9.681883
2022-12-23T04:20:40.522Z,9.681476
2022-12-23T04:21:40.501Z,9.681524
2022-12-23T04:22:40.485Z,9.681458
2022-12-23T04:23:40.512Z,9.681437
2022-12-23T04:24:40.487Z,9.681289
2022-12-23T04:25:40.463Z,9.680993
2022-12-23T04:26:40.462Z,9.681522
2022-12-23T04:27:40.462Z,9.681460
2022-12-23T04:28:40.464Z,9.681460
2022-12-23T04:29:40.451Z,9.681460
2022-12-23T04:30:40.446Z,9.681460
2022-12-23T04:31:40.548Z,9.681460
2022-12-23T04:32:40.420Z,9.681460
2022-12-23T04:33:40.432Z,9.681460
2022-12-23T04:34:40.427Z,9.681460
2022-12-23T04:35:40.417Z,9.681460
2022-12-23T04:36:40.403Z,9.681460
2022-12-23T04:37:40.422Z,9.681460
2022-12-23T04:38:40.392Z,9.681460
2022-12-23T04:39:40.391Z,9.681460
2022-12-23T04:40:40.379Z,9.681460
2022-12-23T04:41:40.388Z,9.681460
2022-12-23T04:42:40.413Z,9.681460
2022-12-23T04:43:40.367Z,9.681460
2022-12-23T04:44:40.363Z,9.681460
2022-12-23T04:45:40.374Z,9.681460
2022-12-23T04:46:40.393Z,9.681460
2022-12-23T04:47:40.341Z,9.681460
2022-12-23T04:48:40.356Z,9.681460
2022-12-23T04:49:40.327Z,9.681460
2022-12-23T04:50:40.332Z,9.681460
2022-12-23T04:51:40.322Z,9.681460
2022-12-23T04:52:40.306Z,9.681460
2022-12-23T04:53:40.314Z,9.681460
2022-12-23T04:54:45.727Z,9.681460
2022-12-23T04:55:41.299Z,9.681460
2022-12-23T04:56:40.281Z,9.681460
2022-12-23T04:57:40.281Z,9.681460
2022-12-23T04:58:40.294Z,9.681460
2022-12-23T04:59:40.276Z,9.681460
2022-12-23T05:00:40.363Z,9.681460
2022-12-23T05:01:40.456Z,9.681460
2022-12-23T05:02:40.344Z,9.681460
2022-12-23T05:03:40.282Z,9.681460
2022-12-23T05:04:40.301Z,9.681460
2022-12-23T05:05:40.232Z,9.681460
2022-12-23T05:06:40.245Z,9.681460
2022-12-23T05:07:40.232Z,9.681460
2022-12-23T05:08:40.224Z,9.681460
2022-12-23T05:09:40.230Z,9.681460
2022-12-23T05:10:40.211Z,9.681460
2022-12-23T05:11:42.391Z,9.681460
2022-12-23T05:12:40.193Z,9.681460
2022-12-23T05:13:40.201Z,9.681460
2022-12-23T05:14:40.207Z,9.681460
2022-12-23T05:15:40.186Z,9.681460
2022-12-23T05:16:40.233Z,9.681460
2022-12-23T05:17:40.186Z,9.681460
2022-12-23T05:18:40.174Z,9.681460
2022-12-23T05:19:40.205Z,9.681460
2022-12-23T05:20:40.160Z,9.681460
2022-12-23T05:21:40.140Z,9.681460
2022-12-23T05:22:40.161Z,9.681460
2022-12-23T05:23:40.140Z,9.681460
2022-12-23T05:24:47.131Z,9.681460
2022-12-23T05:25:40.140Z,9.681460
2022-12-23T05:26:40.128Z,9.681460
2022-12-23T05:27:40.110Z,9.681460
2022-12-23T05:28:40.099Z,9.681460
2022-12-23T05:29:40.088Z,9.681460
2022-12-23T05:30:40.099Z,9.681460
2022-12-23T05:31:40.098Z,9.681460
2022-12-23T05:32:40.118Z,9.681460
2022-12-23T05:33:40.120Z,9.681460
2022-12-23T05:34:40.061Z,9.681460
2022-12-23T05:35:40.075Z,9.681460
2022-12-23T05:36:40.051Z,9.681460
2022-12-23T05:37:40.032Z,9.681460
2022-12-23T05:38:40.051Z,9.681460
2022-12-23T05:39:40.054Z,9.681460
2022-12-23T05:40:40.031Z,9.681460
2022-12-23T05:41:40.005Z,9.681460
2022-12-23T05:42:40.018Z,9.681460
2022-12-23T05:43:40.001Z,9.681460
2022-12-23T05:44:39.998Z,9.681460
2022-12-23T05:45:40.041Z,9.681460
2022-12-23T05:46:40.076Z,9.681460
2022-12-23T05:47:39.970Z,9.681460
2022-12-23T05:48:39.972Z,9.681460
2022-12-23T05:49:39.978Z,9.681460
2022-12-23T05:50:39.988Z,9.681460
2022-12-23T05:51:39.944Z,9.681460
2022-12-23T05:52:39.944Z,9.681460
2022-12-23T05:53:39.939Z,9.681460
2022-12-23T05:54:39.965Z,9.681460
2022-12-23T05:55:39.941Z,9.681460
2022-12-23T05:56:39.945Z,9.681460
2022-12-23T05:57:39.917Z,9.681460
2022-12-23T05:58:39.921Z,9.681460
2022-12-23T05:59:39.928Z,9.681460
2022-12-23T06:00:39.904Z,9.681460
2022-12-23T06:01:40.009Z,9.681460
2022-12-23T06:02:40.054Z,9.681460
2022-12-23T06:03:40.026Z,9.681460
2022-12-23T06:04:39.891Z,9.681460
2022-12-23T06:05:39.864Z,9.681460
2022-12-23T06:06:39.854Z,9.681460
2022-12-23T06:07:39.846Z,9.681460
2022-12-23T06:08:39.852Z,9.681460
2022-12-23T06:09:39.836Z,9.681460
2022-12-23T06:10:39.851Z,9.681460
2022-12-23T06:11:39.843Z,9.681460
2022-12-23T06:12:39.817Z,9.681460
2022-12-23T06:13:39.822Z,9.681460
2022-12-23T06:14:39.800Z,9.681460
2022-12-23T06:15:39.810Z,9.681460
2022-12-23T06:16:39.858Z,9.681460
2022-12-23T06:17:39.787Z,9.681460
2022-12-23T06:18:39.791Z,9.681460
2022-12-23T06:19:39.777Z,9.681460
2022-12-23T06:20:39.767Z,9.681460
2022-12-23T06:21:39.759Z,9.681460
2022-12-23T06:22:39.774Z,9.681460
2022-12-23T06:23:39.754Z,9.681460
2022-12-23T06:24:39.779Z,9.681460
2022-12-23T06:25:39.741Z,9.681460
2022-12-23T06:26:39.733Z,9.681460
2022-12-23T06:27:39.742Z,9.681460
2022-12-23T06:28:39.724Z,9.681116
2022-12-23T06:29:39.738Z,9.681266
2022-12-23T06:30:39.713Z,9.681266
2022-12-23T06:31:39.773Z,9.681266
2022-12-23T06:32:39.711Z,9.681266
2022-12-23T06:33:39.688Z,9.681115
2022-12-23T06:34:39.701Z,9.681115
2022-12-23T06:35:39.688Z,9.681189
2022-12-23T06:36:39.660Z,9.681260
2022-12-23T06:37:39.668Z,9.681260
2022-12-23T06:38:39.668Z,9.681468
2022-12-23T06:39:39.680Z,9.680907
2022-12-23T06:40:39.638Z,9.681250
2022-12-23T06:41:39.632Z,9.681380
2022-12-23T06:42:39.637Z,9.681193
2022-12-23T06:43:39.638Z,9.681541
2022-12-23T06:44:39.636Z,9.681126
2022-12-23T06:45:39.625Z,9.681226
2022-12-23T06:46:39.605Z,9.681318
2022-12-23T06:47:39.665Z,9.681465
2022-12-23T06:48:39.611Z,9.681555
2022-12-23T06:49:39.604Z,9.680984
2022-12-23T06:50:39.597Z,9.681216
2022-12-23T06:51:39.571Z,9.681379
2022-12-23T06:52:39.572Z,9.680816
2022-12-23T06:53:39.576Z,9.680543
2022-12-23T06:54:39.550Z,9.680536
2022-12-23T06:55:39.568Z,9.680381
2022-12-23T06:56:39.552Z,9.681311
2022-12-23T06:57:39.553Z,9.681394
2022-12-23T06:58:39.532Z,9.681248
2022-12-23T06:59:39.522Z,9.681091
2022-12-23T07:00:39.512Z,9.681352
2022-12-23T07:01:39.605Z,9.681341
2022-12-23T07:02:39.669Z,9.681143
2022-12-23T07:03:39.543Z,9.681294
2022-12-23T07:04:39.526Z,9.681074
2022-12-23T07:05:39.484Z,9.680814
2022-12-23T07:06:39.503Z,9.680897
2022-12-23T07:07:39.476Z,9.680933
2022-12-23T07:08:39.495Z,9.681528
2022-12-23T07:09:39.472Z,9.681243
2022-12-23T07:10:39.452Z,9.681143
2022-12-23T07:11:39.450Z,9.680920
2022-12-23T07:12:39.449Z,9.680752
2022-12-23T07:13:39.437Z,9.680905
2022-12-23T07:14:39.466Z,9.680738
2022-12-23T07:15:39.430Z,9.680458
2022-12-23T07:16:39.451Z,9.680559
2022-12-23T07:17:39.425Z,9.681396
2022-12-23T07:18:39.413Z,9.681626
2022-12-23T07:19:39.402Z,9.680357
2022-12-23T07:20:39.410Z,9.680078
2022-12-23T07:21:39.396Z,9.679939
2022-12-23T07:22:39.388Z,9.680019
2022-12-23T07:23:39.393Z,9.680310
2022-12-23T07:24:39.412Z,9.680558
2022-12-23T07:25:39.377Z,9.680786
2022-12-23T07:26:39.391Z,9.680834
2022-12-23T07:27:39.365Z,9.680764
2022-12-23T07:28:39.364Z,9.680581
2022-12-23T07:29:39.353Z,9.680265
2022-12-23T07:30:39.429Z,9.680158
2022-12-23T07:31:41.115Z,9.679951
2022-12-23T07:32:39.359Z,9.679803
2022-12-23T07:33:39.333Z,9.680063
2022-12-23T07:34:39.318Z,9.680569
2022-12-23T07:35:39.319Z,9.681821
2022-12-23T07:36:39.311Z,9.682166
2022-12-23T07:37:39.312Z,9.681003
2022-12-23T07:38:39.312Z,9.680495
2022-12-23T07:39:39.299Z,9.680495
2022-12-23T07:40:39.309Z,9.682227
2022-12-23T07:41:39.314Z,9.681531
2022-12-23T07:42:47.242Z,9.681878
2022-12-23T07:43:40.290Z,9.682012
2022-12-23T07:44:39.263Z,9.681519
2022-12-23T07:45:39.290Z,9.681489
2022-12-23T07:46:39.318Z,9.680791
2022-12-23T07:47:39.246Z,9.681738
2022-12-23T07:48:39.239Z,9.681237
2022-12-23T07:49:39.258Z,9.681377
2022-12-23T07:50:39.231Z,9.681541
2022-12-23T07:51:39.231Z,9.681573
2022-12-23T07:52:39.230Z,9.681898
2022-12-23T07:53:39.239Z,9.681829
2022-12-23T07:54:39.212Z,9.682274
2022-12-23T07:55:39.205Z,9.682274
2022-12-23T07:56:39.190Z,9.682274
2022-12-23T07:57:39.215Z,9.682274
2022-12-23T07:58:39.222Z,9.682274
2022-12-23T07:59:39.191Z,9.681852
2022-12-23T08:00:39.192Z,9.681735
2022-12-23T08:01:39.328Z,9.681230
2022-12-23T08:02:39.421Z,9.681296
2022-12-23T08:03:39.254Z,9.680698
2022-12-23T08:04:45.589Z,9.680887
2022-12-23T08:05:40.165Z,9.681301
2022-12-23T08:06:39.131Z,9.680861
2022-12-23T08:07:39.129Z,9.680608
2022-12-23T08:08:39.122Z,9.680536
2022-12-23T08:09:39.137Z,9.681000
2022-12-23T08:10:44.376Z,9.680823
2022-12-23T08:11:40.137Z,9.680688
2022-12-23T08:12:39.101Z,9.680846
2022-12-23T08:13:39.117Z,9.680943
2022-12-23T08:14:39.090Z,9.681215
2022-12-23T08:15:39.078Z,9.681211
2022-12-23T08:16:43.561Z,9.680914
2022-12-23T08:17:39.101Z,9.680963
2022-12-23T08:18:39.069Z,9.681077
2022-12-23T08:19:39.071Z,9.680940
2022-12-23T08:20:39.049Z,9.680944
2022-12-23T08:21:39.037Z,9.680964
2022-12-23T08:22:39.031Z,9.680987
2022-12-23T08:23:39.035Z,9.681035
2022-12-23T08:24:39.049Z,9.681355
2022-12-23T08:25:39.030Z,9.681021
2022-12-23T08:26:39.018Z,9.680910
2022-12-23T08:27:38.997Z,9.680972
2022-12-23T08:28:39.016Z,9.680911
2022-12-23T08:29:39.007Z,9.680786
2022-12-23T08:30:39.032Z,9.680696
2022-12-23T08:31:39.005Z,9.681065
2022-12-23T08:32:38.974Z,9.680992
2022-12-23T08:33:38.964Z,9.680954
2022-12-23T08:34:39.021Z,9.680735
2022-12-23T08:35:38.956Z,9.680166
2022-12-23T08:36:38.975Z,9.680004
2022-12-23T08:37:38.937Z,9.679989
2022-12-23T08:38:38.932Z,9.679978
2022-12-23T08:39:39.014Z,9.679978
2022-12-23T08:40:38.954Z,9.679978
2022-12-23T08:41:38.939Z,9.679978
2022-12-23T08:42:38.980Z,9.679978
2022-12-23T08:43:38.918Z,9.679978
2022-12-23T08:44:38.891Z,9.680290
2022-12-23T08:45:38.943Z,9.680476
2022-12-23T08:46:38.943Z,9.680420
2022-12-23T08:47:38.921Z,9.680138
2022-12-23T08:48:42.520Z,9.680351
2022-12-23T08:49:38.859Z,9.679475
2022-12-23T08:50:38.912Z,9.679774
2022-12-23T08:51:38.862Z,9.679047
2022-12-23T08:52:38.852Z,9.678485
2022-12-23T08:53:38.844Z,9.678282
2022-12-23T08:54:38.851Z,9.678249
2022-12-23T08:55:38.826Z,9.677885
2022-12-23T08:56:38.853Z,9.678110
2022-12-23T08:57:38.824Z,9.677853
2022-12-23T08:58:38.817Z,9.677535
2022-12-23T08:59:38.815Z,9.677701
2022-12-23T09:00:38.813Z,9.677685
2022-12-23T09:01:38.894Z,9.677432
2022-12-23T09:02:38.934Z,9.677338
2022-12-23T09:03:38.888Z,9.677556
2022-12-23T09:04:38.786Z,9.677908
2022-12-23T09:05:38.810Z,9.678245
2022-12-23T09:06:38.789Z,9.678307
2022-12-23T09:07:38.778Z,9.678168
2022-12-23T09:08:38.773Z,9.677820
2022-12-23T09:09:38.781Z,9.677995
2022-12-23T09:10:38.736Z,9.677416
2022-12-23T09:11:38.767Z,9.677938
2022-12-23T09:12:38.736Z,9.678329
2022-12-23T09:13:38.722Z,9.678214
2022-12-23T09:14:38.713Z,9.678851
2022-12-23T09:15:38.783Z,9.678282
2022-12-23T09:16:38.711Z,9.678322
2022-12-23T09:17:38.747Z,9.680296
2022-12-23T09:18:38.720Z,9.680592
2022-12-23T09:19:38.681Z,9.680936
2022-12-23T09:20:38.693Z,9.681300
2022-12-23T09:21:38.688Z,9.681057
2022-12-23T09:22:38.684Z,9.681189
2022-12-23T09:23:38.680Z,9.681276
2022-12-23T09:24:38.648Z,9.681007
2022-12-23T09:25:38.655Z,9.681703
2022-12-23T09:26:38.650Z,9.681068
2022-12-23T09:27:38.626Z,9.681443
2022-12-23T09:28:38.674Z,9.681190
2022-12-23T09:29:38.628Z,9.680997
2022-12-23T09:30:38.626Z,9.681202
2022-12-23T09:31:38.673Z,9.681172
2022-12-23T09:32:38.604Z,9.680908
2022-12-23T09:33:38.609Z,9.681477
2022-12-23T09:34:38.647Z,9.681628
2022-12-23T09:35:38.604Z,9.681612
2022-12-23T09:36:38.571Z,9.681325
2022-12-23T09:37:38.619Z,9.681056
2022-12-23T09:38:38.562Z,9.680951
2022-12-23T09:39:38.562Z,9.680767
2022-12-23T09:40:38.588Z,9.681153
2022-12-23T09:41:38.555Z,9.681228
2022-12-23T09:42:38.546Z,9.681171
2022-12-23T09:43:38.549Z,9.680599
2022-12-23T09:44:38.537Z,9.680604
2022-12-23T09:45:40.720Z,9.680841
2022-12-23T09:46:38.609Z,9.680716
2022-12-23T09:47:38.510Z,9.680420
2022-12-23T09:48:38.504Z,9.679815
2022-12-23T09:49:38.524Z,9.679422
2022-12-23T09:50:38.486Z,9.679960
2022-12-23T09:51:38.513Z,9.680165
2022-12-23T09:52:38.496Z,9.679965
2022-12-23T09:53:38.475Z,9.679920
2022-12-23T09:54:38.470Z,9.680455
2022-12-23T09:55:38.457Z,9.680828
2022-12-23T09:56:38.461Z,9.680473
2022-12-23T09:57:38.450Z,9.680653
2022-12-23T09:58:38.479Z,9.680871
2022-12-23T09:59:38.416Z,9.680613
2022-12-23T10:00:38.427Z,9.680691
2022-12-23T10:01:44.449Z,9.680655
2022-12-23T10:02:38.629Z,9.680655
2022-12-23T10:03:38.666Z,9.680655
2022-12-23T10:04:38.413Z,9.680655
2022-12-23T10:05:38.400Z,9.680655
2022-12-23T10:06:38.400Z,9.680655
2022-12-23T10:07:38.435Z,9.680655
2022-12-23T10:08:38.377Z,9.680655
2022-12-23T10:09:38.429Z,9.680655
2022-12-23T10:10:38.466Z,9.680655
2022-12-23T10:11:38.367Z,9.680655
2022-12-23T10:12:40.320Z,9.680655
2022-12-23T10:13:38.363Z,9.680655
2022-12-23T10:14:38.342Z,9.680655
2022-12-23T10:15:38.370Z,9.680655
2022-12-23T10:16:38.400Z,9.680655
2022-12-23T10:17:38.325Z,9.680655
2022-12-23T10:18:38.336Z,9.680655
2022-12-23T10:19:38.302Z,9.680655
2022-12-23T10:20:38.327Z,9.680655
2022-12-23T10:21:42.232Z,9.680655
2022-12-23T10:22:39.302Z,9.680655
2022-12-23T10:23:38.305Z,9.680655
2022-12-23T10:24:38.284Z,9.680655
2022-12-23T10:25:38.282Z,9.680655
2022-12-23T10:26:38.283Z,9.680655
2022-12-23T10:27:38.312Z,9.680655
2022-12-23T10:28:38.269Z,9.680655
2022-12-23T10:29:38.401Z,9.680655
2022-12-23T10:31:40.956Z,9.680655
2022-12-23T10:32:38.268Z,9.680655
2022-12-23T10:33:38.226Z,9.680655
2022-12-23T10:34:38.863Z,9.680655
2022-12-23T10:35:38.211Z,9.680655
2022-12-23T10:36:38.277Z,9.680655
2022-12-23T10:37:38.223Z,9.680655
2022-12-23T10:38:38.209Z,9.680655
2022-12-23T10:39:38.182Z,9.680655
2022-12-23T10:40:38.219Z,9.680655
2022-12-23T10:41:38.184Z,9.680655
2022-12-23T10:42:38.163Z,9.680655
2022-12-23T10:43:38.176Z,9.680655
2022-12-23T10:44:38.177Z,9.680655
2022-12-23T10:45:38.156Z,9.680655
2022-12-23T10:46:38.200Z,9.680655
2022-12-23T10:47:38.168Z,9.680655
2022-12-23T10:48:38.128Z,9.680655
2022-12-23T10:49:38.160Z,9.680655
2022-12-23T10:50:38.151Z,9.680655
2022-12-23T10:51:38.135Z,9.680655
2022-12-23T10:52:38.108Z,9.680655
2022-12-23T10:53:38.129Z,9.680655
2022-12-23T10:54:38.119Z,9.680655
2022-12-23T10:55:38.107Z,9.680655
2022-12-23T10:56:38.117Z,9.680655
2022-12-23T10:57:38.079Z,9.680655
2022-12-23T10:58:38.119Z,9.680655
2022-12-23T10:59:38.082Z,9.680655
2022-12-23T11:00:38.201Z,9.680655
2022-12-23T11:01:38.197Z,9.680655
2022-12-23T11:02:38.297Z,9.680655
2022-12-23T11:03:38.251Z,9.680655
2022-12-23T11:04:38.036Z,9.680373
2022-12-23T11:05:38.069Z,9.680373
2022-12-23T11:06:38.062Z,9.680436
2022-12-23T11:07:46.171Z,9.680594
2022-12-23T11:08:39.039Z,9.680536
2022-12-23T11:09:38.055Z,9.680726
2022-12-23T11:10:38.010Z,9.680574
2022-12-23T11:11:38.017Z,9.681210
2022-12-23T11:12:42.065Z,9.680142
2022-12-23T11:13:37.989Z,9.681644
2022-12-23T11:14:37.983Z,9.681018
2022-12-23T11:15:37.976Z,9.680318
2022-12-23T11:16:38.044Z,9.680649
2022-12-23T11:17:37.971Z,9.680401
2022-12-23T11:18:42.049Z,9.680674
2022-12-23T11:19:37.957Z,9.680567
2022-12-23T11:20:37.967Z,9.680853
2022-12-23T11:21:37.950Z,9.680901
2022-12-23T11:22:37.934Z,9.681204
2022-12-23T11:23:37.945Z,9.681226
2022-12-23T11:24:42.967Z,9.681006
2022-12-23T11:25:39.025Z,9.681006
2022-12-23T11:26:37.928Z,9.681006
2022-12-23T11:27:44.927Z,9.681012
2022-12-23T11:28:37.907Z,9.681170
2022-12-23T11:29:37.899Z,9.681176
2022-12-23T11:30:37.897Z,9.680496
2022-12-23T11:31:37.933Z,9.680496
2022-12-23T11:32:37.900Z,9.680496
2022-12-23T11:33:37.884Z,9.681376
2022-12-23T11:34:37.883Z,9.680677
2022-12-23T11:35:37.944Z,9.681239
2022-12-23T11:36:37.862Z,9.681688
2022-12-23T11:37:37.888Z,9.680850
2022-12-23T11:38:37.854Z,9.681068
2022-12-23T11:39:37.845Z,9.680985
2022-12-23T11:40:37.843Z,9.681557
2022-12-23T11:41:37.830Z,9.681139
2022-12-23T11:42:37.814Z,9.681139
2022-12-23T11:43:37.870Z,9.681139
2022-12-23T11:44:37.816Z,9.681139
2022-12-23T11:45:37.862Z,9.681139